createdAt,value
2023-03-29T00:00:35.919Z,97406.13
2023-03-29T00:03:05.362Z,97408.84
2023-03-29T00:05:36.782Z,97390.34
2023-03-29T00:08:04.251Z,97383.41
2023-03-29T00:10:33.777Z,97369.91
2023-03-29T00:13:03.152Z,97370.28
2023-03-29T00:15:39.822Z,97372.19
2023-03-29T00:18:06.439Z,97378.75
2023-03-29T00:20:37.522Z,97363.34
2023-03-29T00:23:09.190Z,97359.88
2023-03-29T00:25:37.840Z,97371.03
2023-03-29T00:28:06.656Z,97368.69
2023-03-29T00:30:38.463Z,97372.94
2023-03-29T00:33:05.072Z,97369.47
2023-03-29T00:35:31.701Z,97366.00
2023-03-29T00:37:58.306Z,97355.97
2023-03-29T00:40:27.080Z,97362.16
2023-03-29T00:42:55.723Z,97354.44
2023-03-29T00:45:27.113Z,97357.53
2023-03-29T00:48:02.621Z,97346.78
2023-03-29T00:50:37.981Z,97346.38
2023-03-29T00:53:12.468Z,97341.38
2023-03-29T00:55:48.001Z,97342.91
2023-03-29T00:58:23.435Z,97334.81
2023-03-29T01:01:02.171Z,97331.72
2023-03-29T01:03:38.001Z,97324.03
2023-03-29T01:06:10.656Z,97317.13
2023-03-29T01:08:45.301Z,97325.19
2023-03-29T01:11:14.772Z,97320.94
2023-03-29T01:13:49.118Z,97315.16
2023-03-29T01:16:19.264Z,97303.22
2023-03-29T01:18:47.057Z,97303.63
2023-03-29T01:21:29.340Z,97308.25
2023-03-29T01:24:24.944Z,97310.13
2023-03-29T01:27:22.742Z,97315.56
2023-03-29T01:29:57.273Z,97312.47
2023-03-29T01:32:35.362Z,97304.78
2023-03-29T01:35:11.769Z,97300.16
2023-03-29T01:37:49.807Z,97309.38
2023-03-29T01:40:16.605Z,97311.69
2023-03-29T01:43:12.376Z,97312.47
2023-03-29T01:45:49.199Z,97322.84
2023-03-29T01:48:30.306Z,97308.25
2023-03-29T01:51:04.620Z,97303.63
2023-03-29T01:53:41.212Z,97297.06
2023-03-29T01:56:12.543Z,97293.22
2023-03-29T01:58:45.259Z,97297.47
2023-03-29T02:01:18.628Z,97292.84
2023-03-29T02:03:54.661Z,97290.91
2023-03-29T02:06:24.463Z,97288.97
2023-03-29T02:08:53.104Z,97283.19
2023-03-29T02:11:23.328Z,97280.50
2023-03-29T02:13:49.837Z,97277.81
2023-03-29T02:16:19.087Z,97267.41
2023-03-29T02:18:53.151Z,97271.28
2023-03-29T02:21:32.770Z,97260.88
2023-03-29T02:24:06.516Z,97272.44
2023-03-29T02:26:36.172Z,97269.72
2023-03-29T02:29:03.396Z,97259.72
2023-03-29T02:31:45.350Z,97265.88
2023-03-29T02:34:28.835Z,97273.19
2023-03-29T02:37:03.890Z,97272.03
2023-03-29T02:39:37.314Z,97274.75
2023-03-29T02:42:05.316Z,97260.09
2023-03-29T02:44:37.934Z,97261.66
2023-03-29T02:47:12.352Z,97260.88
2023-03-29T02:49:39.108Z,97253.56
2023-03-29T02:52:12.628Z,97265.88
2023-03-29T02:54:43.385Z,97267.03
2023-03-29T02:57:10.686Z,97264.34
2023-03-29T02:59:38.651Z,97257.81
2023-03-29T03:02:07.471Z,97252.00
2023-03-29T03:04:35.639Z,97260.47
2023-03-29T03:07:09.976Z,97250.84
2023-03-29T03:09:41.237Z,97257.41
2023-03-29T03:12:08.493Z,97267.44
2023-03-29T03:14:38.053Z,97272.81
2023-03-29T03:17:04.861Z,97270.88
2023-03-29T03:19:33.859Z,97261.66
2023-03-29T03:22:05.912Z,97262.78
2023-03-29T03:24:35.501Z,97277.06
2023-03-29T03:27:02.124Z,97260.47
2023-03-29T03:29:31.248Z,97263.56
2023-03-29T03:31:57.789Z,97277.84
2023-03-29T03:34:26.599Z,97273.94
2023-03-29T03:36:55.453Z,97271.66
2023-03-29T03:39:24.562Z,97274.34
2023-03-29T03:41:53.542Z,97260.09
2023-03-29T03:44:22.539Z,97265.47
2023-03-29T03:46:49.172Z,97243.16
2023-03-29T03:49:16.588Z,97258.94
2023-03-29T03:51:45.591Z,97263.56
2023-03-29T03:54:17.217Z,97267.03
2023-03-29T03:56:46.097Z,97248.91
2023-03-29T03:59:12.668Z,97263.94
2023-03-29T04:01:46.764Z,97244.69
2023-03-29T04:04:16.558Z,97246.22
2023-03-29T04:06:44.168Z,97250.09
2023-03-29T04:09:15.517Z,97246.59
2023-03-29T04:11:42.163Z,97252.38
2023-03-29T04:14:09.448Z,97257.78
2023-03-29T04:16:36.847Z,97270.50
2023-03-29T04:19:05.734Z,97260.09
2023-03-29T04:21:33.911Z,97262.78
2023-03-29T04:24:00.579Z,97258.94
2023-03-29T04:26:30.364Z,97257.78
2023-03-29T04:28:59.403Z,97240.78
2023-03-29T04:31:28.452Z,97248.13
2023-03-29T04:34:00.332Z,97265.06
2023-03-29T04:36:27.096Z,97261.97
2023-03-29T04:38:56.274Z,97269.28
2023-03-29T04:41:23.789Z,97271.25
2023-03-29T04:43:50.568Z,97260.44
2023-03-29T04:46:19.354Z,97259.63
2023-03-29T04:48:50.707Z,97260.81
2023-03-29T04:51:22.113Z,97268.53
2023-03-29T04:53:50.906Z,97259.25
2023-03-29T04:56:17.610Z,97257.69
2023-03-29T04:58:44.619Z,97243.84
2023-03-29T05:01:11.396Z,97243.47
2023-03-29T05:03:38.054Z,97240.75
2023-03-29T05:06:12.641Z,97239.59
2023-03-29T05:08:40.577Z,97234.56
2023-03-29T05:11:08.998Z,97241.13
2023-03-29T05:13:36.198Z,97244.59
2023-03-29T05:16:07.964Z,97246.91
2023-03-29T05:18:34.691Z,97251.16
2023-03-29T05:21:01.707Z,97244.59
2023-03-29T05:23:28.940Z,97245.75
2023-03-29T05:25:55.544Z,97248.81
2023-03-29T05:28:22.452Z,97248.81
2023-03-29T05:31:00.100Z,97251.88
2023-03-29T05:33:30.835Z,97245.28
2023-03-29T05:36:01.915Z,97253.41
2023-03-29T05:38:29.764Z,97256.47
2023-03-29T05:41:02.348Z,97249.19
2023-03-29T05:43:29.470Z,97246.50
2023-03-29T05:45:56.767Z,97244.16
2023-03-29T05:48:26.998Z,97243.00
2023-03-29T05:50:57.857Z,97243.41
2023-03-29T05:53:27.155Z,97238.34
2023-03-29T05:55:54.207Z,97246.06
2023-03-29T05:58:23.405Z,97252.25
2023-03-29T06:00:50.150Z,97243.38
2023-03-29T06:03:22.123Z,97252.25
2023-03-29T06:06:02.472Z,97254.53
2023-03-29T06:08:29.478Z,97243.69
2023-03-29T06:11:04.918Z,97239.84
2023-03-29T06:13:34.759Z,97251.03
2023-03-29T06:16:01.521Z,97258.72
2023-03-29T06:18:28.166Z,97252.53
2023-03-29T06:20:54.774Z,97254.47
2023-03-29T06:23:23.129Z,97256.75
2023-03-29T06:25:51.546Z,97261.00
2023-03-29T06:28:19.300Z,97247.84
2023-03-29T06:30:49.738Z,97258.63
2023-03-29T06:33:22.465Z,97261.34
2023-03-29T06:35:53.645Z,97263.69
2023-03-29T06:38:23.243Z,97257.84
2023-03-29T06:40:49.940Z,97259.00
2023-03-29T06:43:18.777Z,97257.47
2023-03-29T06:45:45.360Z,97254.38
2023-03-29T06:48:12.305Z,97269.78
2023-03-29T06:50:38.949Z,97265.13
2023-03-29T06:53:07.608Z,97274.00
2023-03-29T06:55:34.527Z,97265.09
2023-03-29T06:58:04.249Z,97261.59
2023-03-29T07:00:35.832Z,97255.75
2023-03-29T07:03:06.759Z,97259.53
2023-03-29T07:05:41.014Z,97261.81
2023-03-29T07:08:14.049Z,97262.16
2023-03-29T07:10:47.521Z,97263.69
2023-03-29T07:13:15.609Z,97265.16
2023-03-29T07:15:45.845Z,97267.41
2023-03-29T07:18:15.494Z,97264.91
2023-03-29T07:20:44.682Z,97267.50
2023-03-29T07:23:13.531Z,97259.38
2023-03-29T07:25:42.446Z,97266.69
2023-03-29T07:28:11.452Z,97267.72
2023-03-29T07:30:40.642Z,97270.00
2023-03-29T07:33:07.208Z,97281.53
2023-03-29T07:35:33.926Z,97288.09
2023-03-29T07:38:00.552Z,97280.31
2023-03-29T07:40:27.273Z,97292.31
2023-03-29T07:42:56.812Z,97283.75
2023-03-29T07:45:28.176Z,97288.00
2023-03-29T07:47:57.676Z,97298.53
2023-03-29T07:50:27.541Z,97295.44
2023-03-29T07:52:54.478Z,97294.66
2023-03-29T07:55:23.670Z,97300.44
2023-03-29T07:57:50.318Z,97313.25
2023-03-29T08:00:18.955Z,97307.41
2023-03-29T08:02:47.898Z,97313.13
2023-03-29T08:05:26.122Z,97310.00
2023-03-29T08:08:00.919Z,97315.31
2023-03-29T08:10:34.267Z,97312.63
2023-03-29T08:13:04.016Z,97319.50
2023-03-29T08:15:33.774Z,97328.50
2023-03-29T08:18:00.396Z,97322.69
2023-03-29T08:20:27.544Z,97316.00
2023-03-29T08:22:57.172Z,97313.56
2023-03-29T08:25:23.771Z,97318.78
2023-03-29T08:27:50.382Z,97321.03
2023-03-29T08:30:17.372Z,97322.41
2023-03-29T08:32:44.860Z,97323.94
2023-03-29T08:35:15.413Z,97328.84
2023-03-29T08:37:42.198Z,97326.94
2023-03-29T08:40:17.720Z,97326.50
2023-03-29T08:42:53.526Z,97331.03
2023-03-29T08:45:26.005Z,97319.53
2023-03-29T08:48:08.416Z,97325.34
2023-03-29T08:50:48.065Z,97326.47
2023-03-29T08:53:28.220Z,97322.06
2023-03-29T08:55:59.802Z,97310.41
2023-03-29T08:58:31.535Z,97315.66
2023-03-29T09:01:04.310Z,97315.25
2023-03-29T09:03:40.020Z,97312.00
2023-03-29T09:06:11.133Z,97320.81
2023-03-29T09:08:46.368Z,97320.00
2023-03-29T09:11:28.842Z,97313.25
2023-03-29T09:14:07.555Z,97321.69
2023-03-29T09:17:17.519Z,97314.53
2023-03-29T09:20:21.792Z,97308.28
2023-03-29T09:23:28.494Z,97305.91
2023-03-29T09:26:03.894Z,97316.19
2023-03-29T09:28:37.531Z,97304.25
2023-03-29T09:31:13.768Z,97321.75
2023-03-29T09:33:45.059Z,97303.47
2023-03-29T09:36:25.714Z,97295.22
2023-03-29T09:38:55.911Z,97292.91
2023-03-29T09:41:38.846Z,97299.78
2023-03-29T09:44:30.111Z,97302.91
2023-03-29T09:47:09.919Z,97293.34
2023-03-29T09:49:42.493Z,97289.38
2023-03-29T09:52:13.764Z,97295.16
2023-03-29T09:54:40.833Z,97296.50
2023-03-29T09:57:12.168Z,97288.69
2023-03-29T09:59:39.562Z,97287.97
2023-03-29T10:02:09.416Z,97284.19
2023-03-29T10:04:42.958Z,97289.75
2023-03-29T10:07:18.128Z,97289.09
2023-03-29T10:09:46.419Z,97291.00
2023-03-29T10:12:13.958Z,97291.47
2023-03-29T10:14:53.861Z,97289.16
2023-03-29T10:17:34.205Z,97292.66
2023-03-29T10:20:08.826Z,97281.47
2023-03-29T10:22:40.816Z,97279.63
2023-03-29T10:25:15.310Z,97275.03
2023-03-29T10:27:43.933Z,97275.56
2023-03-29T10:30:27.154Z,97270.16
2023-03-29T10:32:59.848Z,97271.84
2023-03-29T10:35:41.939Z,97256.81
2023-03-29T10:38:15.151Z,97263.13
2023-03-29T10:40:47.296Z,97258.56
2023-03-29T10:43:17.017Z,97264.84
2023-03-29T10:45:48.189Z,97265.94
2023-03-29T10:48:20.261Z,97261.59
2023-03-29T10:50:53.260Z,97251.84
2023-03-29T10:53:26.983Z,97253.28
2023-03-29T10:56:32.060Z,97241.59
2023-03-29T10:59:28.424Z,97242.91
2023-03-29T11:02:13.363Z,97245.53
2023-03-29T11:05:09.229Z,97236.91
2023-03-29T11:07:58.441Z,97230.03
2023-03-29T11:10:30.886Z,97228.56
2023-03-29T11:13:22.125Z,97216.66
2023-03-29T11:16:00.871Z,97218.22
2023-03-29T11:18:45.850Z,97214.81
2023-03-29T11:21:24.525Z,97213.22
2023-03-29T11:24:30.719Z,97211.22
2023-03-29T11:27:16.029Z,97206.53
2023-03-29T11:30:02.404Z,97197.72
2023-03-29T11:32:31.584Z,97196.44
2023-03-29T11:35:03.873Z,97192.72
2023-03-29T11:37:48.747Z,97196.34
2023-03-29T11:40:49.065Z,97190.09
2023-03-29T11:43:21.720Z,97193.44
2023-03-29T11:46:26.351Z,97190.28
2023-03-29T11:48:57.982Z,97190.38
2023-03-29T11:52:03.129Z,97182.94
2023-03-29T11:54:45.465Z,97186.91
2023-03-29T11:57:25.093Z,97183.66
2023-03-29T12:00:05.966Z,97186.34
2023-03-29T12:02:49.684Z,97186.56
2023-03-29T12:05:22.287Z,97176.50
2023-03-29T12:07:53.857Z,97179.34
2023-03-29T12:10:24.056Z,97174.97
2023-03-29T12:13:14.343Z,97164.31
2023-03-29T12:15:48.280Z,97170.53
2023-03-29T12:18:17.690Z,97164.16
2023-03-29T12:20:48.544Z,97162.00
2023-03-29T12:23:16.243Z,97156.66
2023-03-29T12:26:02.468Z,97152.22
2023-03-29T12:29:08.320Z,97143.22
2023-03-29T12:31:53.187Z,97127.84
2023-03-29T12:34:36.230Z,97127.97
2023-03-29T12:37:08.134Z,97128.13
2023-03-29T12:39:41.452Z,97125.72
2023-03-29T12:42:21.033Z,97120.94
2023-03-29T12:44:58.713Z,97116.72
2023-03-29T12:47:33.946Z,97116.88
2023-03-29T12:50:04.719Z,97109.09
2023-03-29T12:52:41.547Z,97109.94
2023-03-29T12:55:49.372Z,97116.63
2023-03-29T12:58:24.926Z,97122.75
2023-03-29T13:01:23.686Z,97120.47
2023-03-29T13:03:55.754Z,97114.38
2023-03-29T13:06:54.210Z,97118.31
2023-03-29T13:09:30.047Z,97123.47
2023-03-29T13:12:11.724Z,97119.22
2023-03-29T13:14:43.166Z,97119.06
2023-03-29T13:17:27.301Z,97123.81
2023-03-29T13:20:33.333Z,97111.41
2023-03-29T13:23:29.734Z,97112.28
2023-03-29T13:26:21.541Z,97119.31
2023-03-29T13:29:20.327Z,97104.75
2023-03-29T13:32:27.650Z,97114.63
2023-03-29T13:35:15.694Z,97116.16
2023-03-29T13:38:05.389Z,97118.41
2023-03-29T13:40:42.132Z,97109.28
2023-03-29T13:43:22.691Z,97115.06
2023-03-29T13:45:58.529Z,97116.44
2023-03-29T13:48:33.715Z,97118.41
2023-03-29T13:51:18.695Z,97113.91
2023-03-29T13:54:00.718Z,97118.78
2023-03-29T13:56:34.580Z,97107.97
2023-03-29T13:59:17.856Z,97112.22
2023-03-29T14:01:57.919Z,97104.44
2023-03-29T14:04:30.417Z,97109.16
2023-03-29T14:07:00.502Z,97099.25
2023-03-29T14:09:36.165Z,97093.00
2023-03-29T14:12:05.265Z,97094.06
2023-03-29T14:14:35.174Z,97093.88
2023-03-29T14:17:02.846Z,97093.16
2023-03-29T14:19:32.552Z,97078.97
2023-03-29T14:22:03.546Z,97080.25
2023-03-29T14:24:49.299Z,97086.34
2023-03-29T14:27:16.701Z,97087.13
2023-03-29T14:29:47.476Z,97081.50
2023-03-29T14:32:22.426Z,97076.47
2023-03-29T14:34:53.068Z,97085.88
2023-03-29T14:37:28.877Z,97073.69
2023-03-29T14:39:59.677Z,97074.16
2023-03-29T14:42:29.118Z,97069.38
2023-03-29T14:45:06.424Z,97075.09
2023-03-29T14:47:34.052Z,97082.28
2023-03-29T14:50:06.180Z,97069.69
2023-03-29T14:52:34.591Z,97077.63
2023-03-29T14:55:02.310Z,97070.19
2023-03-29T14:57:34.456Z,97070.19
2023-03-29T15:00:17.338Z,97058.47
2023-03-29T15:03:17.723Z,97057.41
2023-03-29T15:05:52.001Z,97054.47
2023-03-29T15:08:32.373Z,97067.31
2023-03-29T15:11:02.868Z,97055.28
2023-03-29T15:13:31.890Z,97060.75
2023-03-29T15:16:05.175Z,97061.88
2023-03-29T15:18:41.955Z,97055.75
2023-03-29T15:21:10.733Z,97052.72
2023-03-29T15:23:47.993Z,97058.56
2023-03-29T15:26:14.596Z,97052.75
2023-03-29T15:28:55.731Z,97049.47
2023-03-29T15:31:33.146Z,97050.69
2023-03-29T15:34:09.509Z,97041.09
2023-03-29T15:36:42.293Z,97042.47
2023-03-29T15:39:20.317Z,97057.88
2023-03-29T15:41:49.689Z,97052.53
2023-03-29T15:44:17.622Z,97048.41
2023-03-29T15:46:46.673Z,97044.75
2023-03-29T15:49:14.087Z,97046.25
2023-03-29T15:51:46.112Z,97052.69
2023-03-29T15:54:12.657Z,97039.44
2023-03-29T15:56:48.486Z,97047.31
2023-03-29T15:59:18.076Z,97038.31
2023-03-29T16:01:47.955Z,97042.13
2023-03-29T16:04:19.525Z,97042.28
2023-03-29T16:06:52.810Z,97040.78
2023-03-29T16:09:23.322Z,97043.22
2023-03-29T16:11:52.136Z,97042.91
2023-03-29T16:14:27.661Z,97042.28
2023-03-29T16:16:58.269Z,97045.34
2023-03-29T16:19:31.375Z,97040.75
2023-03-29T16:22:02.264Z,97046.41
2023-03-29T16:24:32.061Z,97041.63
2023-03-29T16:26:59.291Z,97037.41
2023-03-29T16:29:28.333Z,97038.75
2023-03-29T16:31:58.133Z,97039.50
2023-03-29T16:34:27.163Z,97034.63
2023-03-29T16:36:53.921Z,97036.59
2023-03-29T16:39:20.860Z,97041.16
2023-03-29T16:41:49.026Z,97043.69
2023-03-29T16:44:19.582Z,97026.09
2023-03-29T16:46:48.379Z,97022.28
2023-03-29T16:49:19.417Z,97015.75
2023-03-29T16:51:47.201Z,97015.28
2023-03-29T16:54:15.367Z,97022.09
2023-03-29T16:56:42.012Z,97032.28
2023-03-29T16:59:12.012Z,97038.81
2023-03-29T17:01:38.715Z,97034.84
2023-03-29T17:04:05.516Z,97032.88
2023-03-29T17:06:36.965Z,97043.03
2023-03-29T17:09:07.388Z,97048.84
2023-03-29T17:11:36.494Z,97048.09
2023-03-29T17:14:03.291Z,97036.91
2023-03-29T17:16:33.072Z,97029.34
2023-03-29T17:19:01.935Z,97022.34
2023-03-29T17:21:29.628Z,97029.03
2023-03-29T17:23:56.437Z,97020.13
2023-03-29T17:26:26.055Z,97013.59
2023-03-29T17:28:55.131Z,97012.34
2023-03-29T17:31:24.018Z,97023.28
2023-03-29T17:33:52.797Z,97031.09
2023-03-29T17:36:23.850Z,97027.97
2023-03-29T17:38:54.753Z,97022.06
2023-03-29T17:41:21.546Z,97028.13
2023-03-29T17:43:51.037Z,97014.38
2023-03-29T17:46:22.689Z,97012.22
2023-03-29T17:48:51.710Z,97017.53
2023-03-29T17:51:23.628Z,97022.97
2023-03-29T17:53:52.414Z,97021.88
2023-03-29T17:56:22.833Z,97021.69
2023-03-29T17:58:50.994Z,97019.94
2023-03-29T18:01:20.427Z,97013.38
2023-03-29T18:03:48.517Z,97021.16
2023-03-29T18:06:18.187Z,97018.53
2023-03-29T18:08:45.386Z,97026.44
2023-03-29T18:11:17.293Z,97028.81
2023-03-29T18:13:48.868Z,97043.34
2023-03-29T18:16:15.850Z,97062.56
2023-03-29T18:18:43.624Z,97087.06
2023-03-29T18:21:10.870Z,97099.31
2023-03-29T18:23:43.086Z,97120.38
2023-03-29T18:26:12.786Z,97122.56
2023-03-29T18:28:43.935Z,97129.34
2023-03-29T18:31:10.589Z,97122.91
2023-03-29T18:33:41.709Z,97113.06
2023-03-29T18:36:12.652Z,97102.28
2023-03-29T18:38:40.653Z,97102.59
2023-03-29T18:41:12.183Z,97097.56
2023-03-29T18:43:40.197Z,97083.59
2023-03-29T18:46:08.034Z,97075.13
2023-03-29T18:48:42.279Z,97082.19
2023-03-29T18:51:12.678Z,97078.91
2023-03-29T18:53:41.686Z,97078.78
2023-03-29T18:56:08.605Z,97081.88
2023-03-29T18:58:40.038Z,97086.66
2023-03-29T19:01:06.798Z,97069.66
2023-03-29T19:03:34.653Z,97061.28
2023-03-29T19:06:02.400Z,97077.16
2023-03-29T19:08:32.964Z,97080.00
2023-03-29T19:11:07.472Z,97083.47
2023-03-29T19:13:34.538Z,97090.88
2023-03-29T19:16:01.317Z,97084.34
2023-03-29T19:18:28.369Z,97084.34
2023-03-29T19:20:55.045Z,97071.69
2023-03-29T19:23:23.124Z,97077.25
2023-03-29T19:26:00.041Z,97078.56
2023-03-29T19:28:36.597Z,97072.53
2023-03-29T19:31:04.363Z,97076.97
2023-03-29T19:33:34.283Z,97074.34
2023-03-29T19:36:01.643Z,97067.81
2023-03-29T19:38:28.624Z,97070.94
2023-03-29T19:40:55.276Z,97063.13
2023-03-29T19:43:27.100Z,97065.09
2023-03-29T19:45:53.742Z,97068.16
2023-03-29T19:48:22.966Z,97076.19
2023-03-29T19:50:50.437Z,97064.66
2023-03-29T19:53:17.214Z,97079.03
2023-03-29T19:55:45.401Z,97076.75
2023-03-29T19:58:12.595Z,97067.81
2023-03-29T20:00:41.823Z,97069.69
2023-03-29T20:03:13.998Z,97063.47
2023-03-29T20:05:41.159Z,97059.09
2023-03-29T20:08:12.558Z,97053.13
2023-03-29T20:10:43.762Z,97048.19
2023-03-29T20:13:10.646Z,97050.16
2023-03-29T20:15:40.213Z,97052.56
2023-03-29T20:18:06.946Z,97053.00
2023-03-29T20:20:35.755Z,97050.28
2023-03-29T20:23:05.226Z,97047.97
2023-03-29T20:25:36.241Z,97049.59
2023-03-29T20:28:07.377Z,97047.63
2023-03-29T20:30:37.322Z,97042.53
2023-03-29T20:33:07.466Z,97036.41
2023-03-29T20:35:34.120Z,97025.19
2023-03-29T20:38:00.720Z,97024.22
2023-03-29T20:40:31.569Z,97017.03
2023-03-29T20:42:58.198Z,97028.34
2023-03-29T20:45:25.690Z,97010.50
2023-03-29T20:48:02.063Z,97009.03
2023-03-29T20:50:29.516Z,97006.31
2023-03-29T20:53:03.793Z,97012.19
2023-03-29T20:55:33.183Z,97015.38
2023-03-29T20:58:02.917Z,97016.78
2023-03-29T21:00:31.889Z,97011.75
2023-03-29T21:03:01.348Z,97010.66
2023-03-29T21:05:29.961Z,97004.03
2023-03-29T21:07:57.037Z,97003.09
2023-03-29T21:10:30.380Z,96997.97
2023-03-29T21:13:02.569Z,96997.72
2023-03-29T21:15:33.681Z,96991.94
2023-03-29T21:18:00.252Z,96992.06
2023-03-29T21:20:29.396Z,96988.38
2023-03-29T21:22:58.991Z,96989.91
2023-03-29T21:25:27.766Z,96996.19
2023-03-29T21:27:56.797Z,96997.72
2023-03-29T21:30:23.447Z,96997.81
2023-03-29T21:32:52.320Z,96994.31
2023-03-29T21:35:18.933Z,96984.97
2023-03-29T21:37:45.505Z,96977.25
2023-03-29T21:40:12.749Z,96983.78
2023-03-29T21:42:41.766Z,96981.16
2023-03-29T21:45:11.608Z,96982.25
2023-03-29T21:47:38.248Z,96971.34
2023-03-29T21:50:08.064Z,96973.00
2023-03-29T21:52:34.905Z,96964.50
2023-03-29T21:55:01.442Z,96967.97
2023-03-29T21:57:30.342Z,96956.22
2023-03-29T21:59:57.065Z,96952.75
2023-03-29T22:02:25.932Z,96957.84
2023-03-29T22:04:52.583Z,96958.63
2023-03-29T22:07:22.809Z,96957.84
2023-03-29T22:09:54.772Z,96957.84
2023-03-29T22:12:26.994Z,96964.06
2023-03-29T22:14:53.562Z,96956.31
2023-03-29T22:17:20.093Z,96954.03
2023-03-29T22:19:48.933Z,96959.91
2023-03-29T22:22:15.595Z,96962.28
2023-03-29T22:24:42.494Z,96956.19
2023-03-29T22:27:13.438Z,96964.44
2023-03-29T22:29:40.010Z,96964.09
2023-03-29T22:32:07.007Z,96963.34
2023-03-29T22:34:33.957Z,96969.97
2023-03-29T22:37:03.106Z,96961.22
2023-03-29T22:39:29.965Z,96952.75
2023-03-29T22:42:01.276Z,96953.69
2023-03-29T22:44:30.134Z,96950.63
2023-03-29T22:46:56.725Z,96944.88
2023-03-29T22:49:25.770Z,96935.84
2023-03-29T22:51:54.584Z,96939.09
2023-03-29T22:54:21.162Z,96936.81
2023-03-29T22:56:47.902Z,96942.59
2023-03-29T22:59:15.768Z,96938.00
2023-03-29T23:01:42.443Z,96937.44
2023-03-29T23:04:12.222Z,96937.19
2023-03-29T23:06:44.042Z,96928.38
2023-03-29T23:09:14.545Z,96922.59
2023-03-29T23:11:42.924Z,96921.41
2023-03-29T23:14:09.561Z,96927.59
2023-03-29T23:16:36.969Z,96924.78
2023-03-29T23:19:06.770Z,96920.22
2023-03-29T23:21:37.054Z,96927.28
2023-03-29T23:24:03.909Z,96916.03
2023-03-29T23:26:35.703Z,96920.72
2023-03-29T23:29:03.338Z,96918.34
2023-03-29T23:31:33.779Z,96912.81
2023-03-29T23:34:00.386Z,96922.38
2023-03-29T23:36:31.476Z,96915.84
2023-03-29T23:38:59.586Z,96913.75
2023-03-29T23:41:30.934Z,96915.28
2023-03-29T23:44:00.528Z,96909.63
2023-03-29T23:46:27.110Z,96902.31
2023-03-29T23:48:53.699Z,96911.31
2023-03-29T23:51:28.078Z,96907.19
2023-03-29T23:53:55.836Z,96909.56
2023-03-29T23:56:23.062Z,96901.16
2023-03-29T23:58:50.028Z,96900.06
